Time;durP1;ratioP1;P1;durP2;ratioP2;P2;SDS_P1;SDS_P2;PMS_P1;PMS_P2;Temp;Humidity;BMP_temperature;BMP_pressure;BME280_temperature;BME280_humidity;BME280_pressure;Samples;Min_cycle;Max_cycle;Signal;HPM_P1;HPM_P2
2024/04/22 00:01:35;;;;;;;99.43;47.90;;;205.30;2252.80;;;;;;5412668;26;20003;-73
2024/04/22 00:04:01;;;;;;;50.67;27.05;;;205.20;2252.80;;;;;;5392537;26;19995;-72
2024/04/22 00:06:27;;;;;;;32.45;19.85;;;205.20;2252.80;;;;;;5413627;26;20384;-76
2024/04/22 00:08:53;;;;;;;33.40;18.33;;;205.20;2252.80;;;;;;5382725;26;20104;-77
2024/04/22 00:11:19;;;;;;;24.05;17.27;;;205.20;2252.80;;;;;;5413024;26;20006;-75
2024/04/22 00:13:45;;;;;;;21.42;14.40;;;205.10;2252.80;;;;;;5411458;26;20018;-75
2024/04/22 00:16:11;;;;;;;19.35;11.32;;;205.10;2252.80;;;;;;5402351;26;19992;-75
2024/04/22 00:18:37;;;;;;;14.40;9.07;;;205.00;2252.80;;;;;;5411608;26;20030;-76
2024/04/22 00:21:02;;;;;;;15.30;9.00;;;205.00;2252.80;;;;;;5411992;26;20329;-72
2024/04/22 00:23:28;;;;;;;32.72;25.00;;;205.00;2252.80;;;;;;5411267;26;20058;-72
2024/04/22 00:25:54;;;;;;;11.80;7.97;;;205.00;2252.80;;;;;;5412047;26;20091;-72
2024/04/22 00:28:20;;;;;;;13.98;8.60;;;205.00;2252.80;;;;;;5411847;26;20020;-72
2024/04/22 00:30:46;;;;;;;15.13;7.43;;;205.00;2252.80;;;;;;5412570;26;20008;-72
2024/04/22 00:33:12;;;;;;;8.18;5.97;;;205.00;2252.80;;;;;;5411102;26;20003;-73
2024/04/22 00:35:38;;;;;;;18.17;10.98;;;204.90;2252.80;;;;;;5412001;26;20009;-72
2024/04/22 00:38:04;;;;;;;34.75;16.67;;;205.00;2252.80;;;;;;5411052;26;20341;-73
2024/04/22 00:40:30;;;;;;;30.25;14.55;;;205.00;2252.80;;;;;;5412288;26;20010;-71
2024/04/22 00:42:58;;;;;;;30.85;14.10;;;204.90;2252.80;;;;;;5410996;26;20003;-72
2024/04/22 00:45:24;;;;;;;7.07;5.57;;;204.90;2252.80;;;;;;5400098;26;20014;-72
2024/04/22 00:47:50;;;;;;;9.90;5.70;;;204.90;2252.80;;;;;;5411248;26;20000;-77
2024/04/22 00:50:16;;;;;;;11.32;6.93;;;205.00;2252.80;;;;;;5411553;26;20003;-78
2024/04/22 00:52:43;;;;;;;7.55;4.97;;;205.00;2252.80;;;;;;5411427;26;20003;-71
2024/04/22 00:55:09;;;;;;;9.13;5.40;;;205.00;2252.80;;;;;;5411653;26;20000;-71
2024/04/22 00:57:38;;;;;;;16.05;9.38;;;205.00;2252.80;;;;;;5410945;26;20006;-72
2024/04/22 01:00:05;;;;;;;11.43;7.22;;;205.00;2252.80;;;;;;5410502;26;20032;-72
2024/04/22 01:02:31;;;;;;;9.13;7.03;;;205.00;2252.80;;;;;;5411242;26;20441;-72
2024/04/22 01:04:59;;;;;;;7.78;5.70;;;205.10;2252.80;;;;;;5411734;26;20010;-74
2024/04/22 01:07:27;;;;;;;10.48;6.90;;;205.00;2252.80;;;;;;5411229;26;19999;-73
2024/04/22 01:09:52;;;;;;;10.48;5.22;;;205.00;2252.80;;;;;;5412230;26;19999;-72
2024/04/22 01:12:18;;;;;;;11.02;6.07;;;205.10;2252.80;;;;;;5411797;26;20014;-73
2024/04/22 01:14:44;;;;;;;10.23;6.65;;;205.00;2252.80;;;;;;5411693;26;20000;-73
2024/04/22 01:17:10;;;;;;;10.43;6.05;;;205.10;2252.80;;;;;;5411744;26;20047;-72
2024/04/22 01:19:36;;;;;;;11.73;6.97;;;205.10;2252.80;;;;;;5411113;26;20068;-72
2024/04/22 01:22:01;;;;;;;7.20;5.32;;;205.10;2252.80;;;;;;5411072;26;20004;-72
2024/04/22 01:24:27;;;;;;;11.25;7.10;;;205.10;2252.80;;;;;;5411324;26;20014;-72
2024/04/22 01:26:55;;;;;;;8.68;5.93;;;205.10;2252.80;;;;;;5410934;26;20105;-73
2024/04/22 01:29:21;;;;;;;16.83;10.98;;;205.00;2252.80;;;;;;5412153;26;20015;-75
2024/04/22 01:31:47;;;;;;;14.48;8.32;;;205.00;2252.80;;;;;;5411690;26;20003;-73
2024/04/22 01:34:13;;;;;;;12.48;7.40;;;205.00;2252.80;;;;;;5411904;26;20445;-72
2024/04/22 01:36:41;;;;;;;17.05;13.82;;;204.90;2252.80;;;;;;5411586;26;20009;-72
2024/04/22 01:39:10;;;;;;;7.45;5.70;;;204.90;2252.80;;;;;;5410916;26;20742;-77
2024/04/22 01:41:36;;;;;;;10.23;9.02;;;204.90;2252.80;;;;;;5411418;26;20027;-72
2024/04/22 01:44:02;;;;;;;11.75;8.85;;;204.80;2252.80;;;;;;5411454;26;20003;-74
2024/04/22 01:46:28;;;;;;;7.03;5.63;;;180.10;2252.80;;;;;;5410664;26;19999;-72
2024/04/22 01:48:54;;;;;;;10.63;6.18;;;180.10;2252.80;;;;;;5410900;26;20000;-74
2024/04/22 01:51:19;;;;;;;8.05;5.50;;;180.10;2252.80;;;;;;5420884;26;19998;-72
2024/04/22 01:53:45;;;;;;;11.23;7.03;;;180.00;2252.80;;;;;;5411751;26;20008;-72
2024/04/22 01:56:11;;;;;;;8.07;5.57;;;180.00;2252.80;;;;;;5411463;26;20117;-79
2024/04/22 01:58:37;;;;;;;7.38;5.38;;;179.90;2252.80;;;;;;5429623;26;20075;-72
2024/04/22 02:01:04;;;;;;;7.40;4.78;;;179.90;2252.80;;;;;;5447259;26;19999;-73
2024/04/22 02:03:30;;;;;;;7.53;6.15;;;179.90;2252.80;;;;;;5463294;26;20845;-72
2024/04/22 02:05:55;;;;;;;8.55;4.90;;;179.80;2252.80;;;;;;5446362;26;20014;-72
2024/04/22 02:08:21;;;;;;;8.18;5.95;;;179.80;2252.80;;;;;;5447181;26;20075;-74
2024/04/22 02:10:47;;;;;;;9.10;5.80;;;179.80;2252.80;;;;;;5446427;26;20097;-74
2024/04/22 02:13:13;;;;;;;7.50;5.10;;;179.70;2252.80;;;;;;5446801;26;19999;-71
2024/04/22 02:15:40;;;;;;;8.63;6.78;;;179.70;2252.80;;;;;;5446915;26;20003;-71
2024/04/22 02:18:06;;;;;;;10.45;7.00;;;179.70;2252.80;;;;;;5447153;26;20341;-73
2024/04/22 02:20:33;;;;;;;9.85;6.55;;;179.60;2252.80;;;;;;5445415;26;19999;-71
2024/04/22 02:22:59;;;;;;;8.65;6.78;;;179.60;2252.80;;;;;;5446075;26;20026;-71
2024/04/22 02:25:25;;;;;;;8.45;6.78;;;179.60;2252.80;;;;;;5446616;26;20484;-72
2024/04/22 02:27:51;;;;;;;11.45;6.32;;;179.60;2252.80;;;;;;5446688;26;20011;-72
2024/04/22 02:30:17;;;;;;;9.70;6.63;;;179.60;2252.80;;;;;;5446918;26;20068;-71
2024/04/22 02:32:43;;;;;;;9.27;6.43;;;179.50;2252.80;;;;;;5446096;26;21196;-72
2024/04/22 02:35:09;;;;;;;8.98;6.07;;;179.40;2252.80;;;;;;5446946;26;20013;-72
2024/04/22 02:37:35;;;;;;;8.90;5.80;;;179.30;2252.80;;;;;;5445837;26;20006;-72
2024/04/22 02:40:01;;;;;;;9.70;6.68;;;179.30;2252.80;;;;;;5446915;26;20010;-72
2024/04/22 02:42:26;;;;;;;10.75;6.85;;;179.30;2252.80;;;;;;5445559;26;19999;-75
2024/04/22 02:44:52;;;;;;;11.32;7.88;;;179.20;2252.80;;;;;;5447469;26;20007;-76
2024/04/22 02:47:18;;;;;;;17.80;11.05;;;154.30;2252.80;;;;;;5445362;26;20013;-72
2024/04/22 02:49:44;;;;;;;132.10;89.35;;;154.30;2252.80;;;;;;5446274;26;20002;-72
2024/04/22 02:52:09;;;;;;;20.77;13.18;;;154.20;2252.80;;;;;;5446289;26;19995;-71
2024/04/22 02:54:35;;;;;;;50.80;45.92;;;154.30;2252.80;;;;;;5446278;26;20344;-71
2024/04/22 02:57:01;;;;;;;13.70;10.68;;;154.30;2252.80;;;;;;5445470;26;20019;-71
2024/04/22 02:59:29;;;;;;;16.45;9.80;;;154.40;2252.80;;;;;;5445764;26;20398;-72
2024/04/22 03:01:54;;;;;;;12.45;9.60;;;154.40;2252.80;;;;;;5445499;26;20010;-72
2024/04/22 03:04:20;;;;;;;11.48;7.85;;;154.50;2252.80;;;;;;5446996;26;19995;-72
2024/04/22 03:06:48;;;;;;;14.55;8.93;;;179.20;2252.80;;;;;;5445660;26;20071;-75
2024/04/22 03:09:14;;;;;;;10.02;6.68;;;179.20;2252.80;;;;;;5446848;26;20069;-72
2024/04/22 03:11:40;;;;;;;9.27;6.80;;;179.20;2252.80;;;;;;5445134;26;20011;-71
2024/04/22 03:14:06;;;;;;;14.20;9.15;;;154.30;2252.80;;;;;;5430642;26;19999;-71
2024/04/22 03:16:32;;;;;;;13.90;9.05;;;154.30;2252.80;;;;;;5446033;26;20013;-71
2024/04/22 03:18:57;;;;;;;11.27;7.40;;;154.30;2252.80;;;;;;5445530;26;20390;-72
2024/04/22 03:21:23;;;;;;;9.82;7.63;;;154.20;2252.80;;;;;;5445126;26;20013;-72
2024/04/22 03:23:49;;;;;;;13.63;7.75;;;154.10;2252.80;;;;;;5446311;26;20537;-71
2024/04/22 03:26:15;;;;;;;10.55;7.00;;;154.10;2252.80;;;;;;5444792;26;20006;-71
2024/04/22 03:28:41;;;;;;;11.10;8.00;;;154.00;2252.80;;;;;;5445200;26;20009;-71
2024/04/22 03:31:06;;;;;;;12.35;8.27;;;153.70;2252.80;;;;;;5445379;26;20003;-71
2024/04/22 03:33:32;;;;;;;11.23;7.13;;;153.60;2252.80;;;;;;5449716;26;19999;-72
2024/04/22 03:36:02;;;;;;;11.27;7.95;;;128.90;2252.80;;;;;;5448819;26;20003;-71
2024/04/22 03:38:28;;;;;;;10.02;7.55;;;153.60;2252.80;;;;;;5449749;26;19998;-71
2024/04/22 03:40:54;;;;;;;9.18;7.13;;;153.60;2252.80;;;;;;5448746;26;20014;-72
2024/04/22 03:43:20;;;;;;;10.98;6.63;;;153.60;2252.80;;;;;;5449273;26;20357;-71
2024/04/22 03:49:50;;;;;;;8.35;6.03;;;153.70;2252.80;;;;;;5448181;26;20398;-72
2024/04/22 03:51:26;;;;;;;8.55;5.90;;;153.80;2252.80;;;;;;5304254;27;20080;-72
2024/04/22 03:53:52;;;;;;;12.25;6.18;;;154.00;2252.80;;;;;;5305272;27;20009;-72
2024/04/22 03:56:18;;;;;;;7.90;5.57;;;154.00;2252.80;;;;;;5304964;27;20448;-71
2024/04/22 03:58:44;;;;;;;8.73;5.50;;;154.00;2252.80;;;;;;5304783;27;20024;-71
2024/04/22 04:01:09;;;;;;;8.48;6.35;;;154.10;2252.80;;;;;;5304951;27;20009;-72
2024/04/22 04:03:35;;;;;;;8.32;6.07;;;154.10;2252.80;;;;;;5305023;27;20463;-76
2024/04/22 04:06:01;;;;;;;8.68;5.45;;;154.20;2252.80;;;;;;5306371;27;20524;-76
2024/04/22 04:08:27;;;;;;;7.63;5.82;;;154.10;2252.80;;;;;;5306688;26;20004;-72
2024/04/22 04:10:55;;;;;;;7.80;5.28;;;154.20;2252.80;;;;;;5307133;27;20002;-76
2024/04/22 04:13:21;;;;;;;9.48;7.45;;;154.40;2252.80;;;;;;5307181;27;20427;-78
2024/04/22 04:15:47;;;;;;;14.70;13.35;;;154.40;2252.80;;;;;;5307104;27;20006;-78
2024/04/22 04:18:13;;;;;;;10.27;8.10;;;154.40;2252.80;;;;;;5306380;26;20001;-72
2024/04/22 04:20:39;;;;;;;8.10;5.40;;;154.50;2252.80;;;;;;5304726;27;20486;-71
2024/04/22 04:23:04;;;;;;;10.50;5.85;;;154.50;2252.80;;;;;;5304493;27;20013;-72
2024/04/22 04:25:30;;;;;;;10.18;6.57;;;179.20;2252.80;;;;;;5304512;27;20521;-71
2024/04/22 04:27:56;;;;;;;11.93;6.43;;;179.30;2252.80;;;;;;5380051;26;20031;-73
2024/04/22 04:30:22;;;;;;;8.70;6.43;;;179.20;2252.80;;;;;;5447951;26;20371;-71
2024/04/22 04:32:48;;;;;;;8.32;6.18;;;180.00;2252.80;;;;;;5447773;26;20071;-72
2024/04/22 04:35:13;;;;;;;8.65;6.10;;;179.40;2252.80;;;;;;5447807;26;20010;-72
2024/04/22 04:37:39;;;;;;;7.20;5.47;;;179.80;2252.80;;;;;;5448629;26;20080;-78
2024/04/22 04:40:06;;;;;;;7.55;5.40;;;231.10;2252.80;;;;;;5447988;26;20317;-72
2024/04/22 04:42:31;;;;;;;6.43;5.53;;;282.40;2278.40;;;;;;5448687;26;19995;-72
2024/04/22 04:44:57;;;;;;;7.30;5.13;;;307.90;2304.00;;;;;;5447709;26;20479;-72
2024/04/22 04:47:23;;;;;;;9.60;6.38;;;333.70;2329.60;;;;;;5448190;26;20204;-73
2024/04/22 04:49:49;;;;;;;7.25;5.68;;;359.10;2278.40;;;;;;5448512;26;19995;-71
2024/04/22 04:52:15;;;;;;;6.93;5.75;;;409.70;2124.80;;;;;;5447412;26;20001;-74
2024/04/22 04:54:40;;;;;;;7.25;6.20;;;410.20;2048.00;;;;;;5447814;26;20003;-71
2024/04/22 04:57:06;;;;;;;9.60;6.60;;;435.80;1971.20;;;;;;5447137;26;20476;-73
2024/04/22 04:59:32;;;;;;;9.85;7.90;;;436.10;1920.00;;;;;;5447621;26;20006;-71
2024/04/22 05:01:58;;;;;;;6.68;5.50;;;461.50;1868.80;;;;;;5442704;26;20006;-73
2024/04/22 05:04:24;;;;;;;6.82;5.55;;;461.70;1817.60;;;;;;5447473;26;20337;-72
2024/04/22 05:06:49;;;;;;;8.65;5.93;;;486.50;1817.60;;;;;;5447785;26;20009;-72
2024/04/22 05:09:15;;;;;;;8.73;6.25;;;487.10;1740.80;;;;;;5447729;26;20014;-72
2024/04/22 05:11:41;;;;;;;12.82;8.07;;;512.30;1689.60;;;;;;5447623;26;20340;-72
2024/04/22 05:14:07;;;;;;;11.25;8.18;;;512.90;1664.00;;;;;;5448010;26;19995;-72
2024/04/22 05:16:33;;;;;;;45.00;38.42;;;537.80;1664.00;;;;;;5447785;26;19999;-72
2024/04/22 05:18:59;;;;;;;33.22;28.15;;;512.90;1664.00;;;;;;5448060;26;20421;-72
2024/04/22 05:21:24;;;;;;;29.35;24.38;;;537.70;1664.00;;;;;;5447004;26;19995;-72
2024/04/22 05:23:50;;;;;;;18.75;16.67;;;512.50;1664.00;;;;;;5447754;26;20042;-72
2024/04/22 05:26:16;;;;;;;24.85;21.15;;;563.50;1612.80;;;;;;5446367;26;20456;-72
2024/04/22 05:28:43;;;;;;;24.55;19.90;;;563.60;1587.20;;;;;;5446027;26;20010;-71
2024/04/22 05:31:09;;;;;;;20.95;17.40;;;614.50;1510.40;;;;;;5440768;26;20010;-77
2024/04/22 05:36:19;;;;;;;18.05;15.48;;;640.00;1408.00;;;;;;5446438;26;20010;-77
2024/04/22 05:38:45;;;;;;;15.02;13.48;;;640.70;1356.80;;;;;;5446314;26;20358;-76
2024/04/22 05:41:11;;;;;;;17.27;15.43;;;666.20;1356.80;;;;;;5446461;26;20029;-77
2024/04/22 05:43:37;;;;;;;13.80;12.40;;;691.20;1331.20;;;;;;5446616;26;20009;-79
2024/04/22 05:46:05;;;;;;;10.02;9.02;;;691.30;1305.60;;;;;;5445874;26;20003;-75
2024/04/22 05:48:30;;;;;;;10.65;9.52;;;666.20;1331.20;;;;;;5447093;26;19999;-78
2024/04/22 05:50:56;;;;;;;10.55;9.52;;;691.30;1280.00;;;;;;5445803;26;20121;-73
2024/04/22 05:53:22;;;;;;;11.75;10.63;;;666.20;1305.60;;;;;;5447030;26;19998;-74
2024/04/22 05:55:48;;;;;;;10.02;9.02;;;666.50;1280.00;;;;;;5446237;26;20337;-74
2024/04/22 05:58:14;;;;;;;10.27;9.30;;;691.90;1254.40;;;;;;5445996;26;19999;-74
2024/04/22 06:00:39;;;;;;;10.02;9.13;;;692.10;1228.80;;;;;;5446222;26;20009;-74
2024/04/22 06:03:05;;;;;;;9.43;8.52;;;691.40;1254.40;;;;;;5446666;26;20394;-74
2024/04/22 06:05:31;;;;;;;13.15;11.95;;;691.90;1228.80;;;;;;5446484;26;20072;-76
2024/04/22 06:07:57;;;;;;;11.50;10.40;;;742.60;1228.80;;;;;;5446624;26;19999;-75
2024/04/22 06:10:23;;;;;;;9.98;9.07;;;743.10;1203.20;;;;;;5446465;26;20010;-74
2024/04/22 06:12:49;;;;;;;11.77;10.55;;;743.10;1177.60;;;;;;5446837;26;19999;-74
2024/04/22 06:15:15;;;;;;;10.18;9.10;;;768.50;1152.00;;;;;;5446282;26;20003;-76
2024/04/22 06:17:41;;;;;;;11.15;10.15;;;743.30;1152.00;;;;;;5446238;26;20006;-77
2024/04/22 06:20:08;;;;;;;17.73;15.02;;;793.60;1152.00;;;;;;5445834;26;20300;-77
2024/04/22 06:22:35;;;;;;;34.30;25.02;;;793.70;1152.00;;;;;;5446774;26;20010;-75
2024/04/22 06:25:02;;;;;;;169.40;150.48;;;768.40;1152.00;;;;;;5444811;26;19998;-76
2024/04/22 06:27:28;;;;;;;20.73;18.88;;;794.00;1126.40;;;;;;5447024;26;19995;-75
2024/04/22 06:29:53;;;;;;;98.85;87.00;;;793.80;1152.00;;;;;;5422028;26;20036;-74
2024/04/22 06:32:19;;;;;;;15.85;13.30;;;794.30;1126.40;;;;;;5447021;26;19995;-75
2024/04/22 06:34:45;;;;;;;14.75;13.43;;;819.60;1100.80;;;;;;5445647;26;19995;-74
2024/04/22 06:37:12;;;;;;;21.23;19.48;;;819.70;1075.20;;;;;;5446713;26;20453;-76
2024/04/22 06:39:37;;;;;;;124.95;113.88;;;819.60;1075.20;;;;;;5445345;26;20006;-75
2024/04/22 06:42:03;;;;;;;68.10;62.47;;;845.20;1049.60;;;;;;5446149;26;20002;-74
2024/04/22 06:44:29;;;;;;;11.63;10.52;;;845.20;1049.60;;;;;;5446170;26;20294;-73
2024/04/22 06:46:55;;;;;;;21.02;19.15;;;845.40;1049.60;;;;;;5446767;26;19994;-74
2024/04/22 06:49:21;;;;;;;17.45;15.85;;;845.70;1049.60;;;;;;5446264;26;19999;-73
2024/04/22 06:51:47;;;;;;;13.68;12.48;;;819.50;1075.20;;;;;;5446703;26;20029;-74
2024/04/22 06:54:13;;;;;;;12.45;11.35;;;819.70;1100.80;;;;;;5445622;26;20429;-73
2024/04/22 06:56:38;;;;;;;37.92;34.05;;;845.60;1049.60;;;;;;5445975;26;19998;-73
2024/04/22 06:59:04;;;;;;;25.35;22.63;;;870.50;1024.00;;;;;;5443775;26;20333;-74
2024/04/22 07:01:30;;;;;;;14.68;13.25;;;871.00;1024.00;;;;;;5446348;26;20026;-73
2024/04/22 07:03:57;;;;;;;45.08;32.80;;;896.20;998.40;;;;;;5412870;26;19998;-74
2024/04/22 07:06:22;;;;;;;120.88;74.43;;;896.20;998.40;;;;;;5447049;26;20409;-74
2024/04/22 07:08:48;;;;;;;31.58;22.92;;;871.10;998.40;;;;;;5448573;26;19999;-78
2024/04/22 07:11:14;;;;;;;16.70;13.07;;;871.10;998.40;;;;;;5449266;26;20007;-77
2024/04/22 07:13:40;;;;;;;405.55;262.25;;;896.50;947.20;;;;;;5448982;26;20075;-78
2024/04/22 07:16:06;;;;;;;32.78;22.98;;;871.30;972.80;;;;;;5449581;26;19995;-76
2024/04/22 07:18:32;;;;;;;23.40;19.48;;;896.90;972.80;;;;;;5448997;26;20456;-77
2024/04/22 07:20:58;;;;;;;27.85;22.42;;;921.80;998.40;;;;;;5448173;26;19995;-75
2024/04/22 07:23:23;;;;;;;10.50;9.52;;;922.10;947.20;;;;;;5448325;26;20017;-75
2024/04/22 07:25:49;;;;;;;10.25;9.45;;;896.80;947.20;;;;;;5449527;26;20012;-78
2024/04/22 07:28:15;;;;;;;12.15;11.02;;;896.90;947.20;;;;;;5448149;26;20008;-72
2024/04/22 07:30:41;;;;;;;11.55;10.43;;;921.80;972.80;;;;;;5449711;26;19999;-77
2024/04/22 07:33:08;;;;;;;11.32;10.32;;;921.60;998.40;;;;;;5448031;26;20521;-77
2024/04/22 07:35:34;;;;;;;15.68;13.82;;;896.00;972.80;;;;;;5449594;26;20608;-74
2024/04/22 07:38:04;;;;;;;17.75;16.08;;;845.20;1049.60;;;;;;5448334;26;19998;-75
2024/04/22 07:40:31;;;;;;;15.13;13.63;;;794.40;1075.20;;;;;;5449603;26;20010;-74
2024/04/22 07:42:56;;;;;;;15.25;13.93;;;844.90;1049.60;;;;;;5448442;26;20414;-71
2024/04/22 07:45:23;;;;;;;13.90;12.55;;;845.40;1024.00;;;;;;5448941;26;19995;-78
2024/04/22 07:47:51;;;;;;;17.80;12.98;;;871.10;972.80;;;;;;5448194;26;20444;-78
2024/04/22 07:50:19;;;;;;;14.75;13.45;;;921.80;972.80;;;;;;5448121;26;20010;-78
2024/04/22 07:52:46;;;;;;;16.30;14.63;;;947.70;921.60;;;;;;5447776;26;20402;-76
2024/04/22 07:55:13;;;;;;;12.63;11.55;;;947.70;921.60;;;;;;5448669;26;19994;-75
2024/04/22 07:57:40;;;;;;;12.25;11.18;;;922.00;947.20;;;;;;5448252;26;20443;-78
2024/04/22 08:00:08;;;;;;;11.80;10.60;;;896.00;947.20;;;;;;5448259;26;20003;-77
2024/04/22 08:02:36;;;;;;;13.95;12.65;;;922.00;921.60;;;;;;5448389;26;19995;-75
2024/04/22 08:05:02;;;;;;;10.30;9.40;;;922.50;947.20;;;;;;5448423;26;20006;-76
2024/04/22 08:07:29;;;;;;;11.27;8.90;;;896.90;921.60;;;;;;5448459;26;19995;-77
2024/04/22 08:09:55;;;;;;;10.38;9.55;;;921.70;921.60;;;;;;5447171;26;20051;-74
2024/04/22 08:12:21;;;;;;;9.77;8.98;;;947.20;921.60;;;;;;5448315;26;20437;-72
2024/04/22 08:14:47;;;;;;;8.82;7.93;;;921.90;947.20;;;;;;5446681;26;19999;-76
2024/04/22 08:17:13;;;;;;;11.68;10.60;;;947.20;921.60;;;;;;5447593;26;20002;-76
2024/04/22 08:19:40;;;;;;;11.38;10.35;;;896.40;947.20;;;;;;5446564;26;19996;-73
2024/04/22 08:22:07;;;;;;;9.27;8.48;;;871.20;947.20;;;;;;5447905;26;19995;-74
2024/04/22 08:24:33;;;;;;;7.97;7.28;;;871.20;947.20;;;;;;5447023;26;20003;-74
2024/04/22 08:27:00;;;;;;;14.52;13.05;;;845.70;972.80;;;;;;5447214;26;20436;-75
2024/04/22 08:29:26;;;;;;;10.38;7.95;;;845.70;972.80;;;;;;5447047;26;19998;-73
2024/04/22 08:31:52;;;;;;;9.13;8.23;;;819.80;998.40;;;;;;5447560;26;19998;-74
2024/04/22 08:34:18;;;;;;;14.95;13.20;;;794.50;1024.00;;;;;;5446435;26;20006;-74
2024/04/22 08:36:44;;;;;;;11.15;10.05;;;742.70;1100.80;;;;;;5446853;26;20433;-73
2024/04/22 08:39:10;;;;;;;81.57;75.82;;;691.70;1152.00;;;;;;5445219;26;19994;-74
2024/04/22 08:41:39;;;;;;;23.33;18.75;;;665.80;1203.20;;;;;;5447307;26;19995;-73
2024/04/22 08:44:05;;;;;;;14.93;13.10;;;640.30;1203.20;;;;;;5447004;26;20068;-73
2024/04/22 08:46:31;;;;;;;16.27;14.55;;;589.40;1331.20;;;;;;5447433;26;20003;-73
2024/04/22 08:48:57;;;;;;;22.67;18.27;;;564.00;1408.00;;;;;;5446268;26;20018;-72
2024/04/22 08:51:25;;;;;;;15.27;11.60;;;564.10;1382.40;;;;;;5447297;26;20448;-74
2024/04/22 08:53:53;;;;;;;17.27;14.55;;;563.80;1433.60;;;;;;5446064;26;20505;-72
2024/04/22 08:56:24;;;;;;;24.15;18.10;;;563.70;1433.60;;;;;;5447959;26;20010;-72
2024/04/22 08:58:53;;;;;;;16.98;13.73;;;563.70;1408.00;;;;;;5444851;26;20013;-77
2024/04/22 09:01:18;;;;;;;24.15;17.02;;;563.60;1408.00;;;;;;5447927;26;20006;-73
2024/04/22 09:03:44;;;;;;;8.18;7.38;;;563.70;1433.60;;;;;;5446949;26;20502;-74
2024/04/22 09:06:11;;;;;;;10.48;8.90;;;563.70;1382.40;;;;;;5446598;26;20007;-74
2024/04/22 09:08:47;;;;;;;12.60;9.88;;;563.40;1408.00;;;;;;5424901;26;20445;-73
2024/04/22 09:11:17;;;;;;;12.02;9.73;;;563.60;1433.60;;;;;;5447766;26;20031;-73
2024/04/22 09:13:44;;;;;;;10.02;8.45;;;563.30;1408.00;;;;;;5446973;26;20025;-74
2024/04/22 09:16:16;;;;;;;20.13;11.55;;;538.20;1433.60;;;;;;5448397;26;21683;-75
2024/04/22 09:18:42;;;;;;;11.88;9.60;;;;;;;;;;5447635;26;20040;-76
2024/04/22 09:21:10;;;;;;;8.63;7.72;;;537.90;1408.00;;;;;;5448233;26;20078;-74
2024/04/22 09:23:38;;;;;;;8.55;7.65;;;538.10;1408.00;;;;;;5447275;26;20010;-72
2024/04/22 09:26:05;;;;;;;9.52;8.32;;;537.90;1459.20;;;;;;5447835;26;20013;-74
2024/04/22 09:28:34;;;;;;;27.85;24.50;;;537.80;1459.20;;;;;;5446616;26;20010;-73
2024/04/22 09:31:02;;;;;;;67.43;39.38;;;512.80;1408.00;;;;;;5447484;26;19999;-74
2024/04/22 09:33:33;;;;;;;15.30;11.85;;;537.80;1408.00;;;;;;5446798;26;20006;-74
2024/04/22 09:36:04;;;;;;;19.80;15.38;;;537.70;1459.20;;;;;;5436262;26;20073;-76
2024/04/22 09:38:33;;;;;;;36.05;24.23;;;512.20;1484.80;;;;;;5436227;26;20010;-75
2024/04/22 09:41:06;;;;;;;82.65;48.47;;;487.30;1484.80;;;;;;5447230;26;19999;-74
2024/04/22 09:43:34;;;;;;;;;;;512.20;1484.80;;;;;;5447913;26;20011;-74
2024/04/22 09:46:04;;;;;;;36.83;26.50;;;512.70;1484.80;;;;;;5447572;26;19936;-77
2024/04/22 09:48:30;;;;;;;12.57;9.95;;;512.70;1484.80;;;;;;5447748;26;20013;-73
2024/04/22 09:51:00;;;;;;;18.08;14.48;;;537.60;1459.20;;;;;;5446389;26;20002;-72
2024/04/22 09:53:26;;;;;;;12.38;10.80;;;486.80;1510.40;;;;;;5447324;26;20013;-72
2024/04/22 09:55:57;;;;;;;22.88;16.05;;;486.60;1536.00;;;;;;5446989;26;19998;-74
2024/04/22 09:58:24;;;;;;;14.65;10.43;;;486.40;1561.60;;;;;;5446073;26;20535;-73
2024/04/22 10:00:51;;;;;;;14.45;12.10;;;486.60;1587.20;;;;;;5446255;26;20014;-74
2024/04/22 10:03:17;;;;;;;33.28;22.83;;;486.60;1561.60;;;;;;5446228;26;20021;-75
2024/04/22 10:05:45;;;;;;;19.00;14.43;;;486.80;1536.00;;;;;;5445142;26;20071;-75
2024/04/22 10:08:15;;;;;;;18.02;12.88;;;486.40;1587.20;;;;;;5442493;26;20460;-72
2024/04/22 10:10:42;;;;;;;18.15;13.18;;;461.70;1612.80;;;;;;5447202;26;20043;-73
2024/04/22 10:13:12;;;;;;;11.15;9.93;;;461.40;1612.80;;;;;;5447176;26;20006;-74
2024/04/22 10:15:38;;;;;;;17.60;14.50;;;461.30;1638.40;;;;;;5446434;26;20010;-74
2024/04/22 10:18:12;;;;;;;14.73;12.10;;;461.30;1638.40;;;;;;5446905;26;20334;-74
2024/04/22 10:20:43;;;;;;;15.40;11.82;;;461.70;1612.80;;;;;;5446270;26;20003;-76
2024/04/22 10:23:12;;;;;;;15.93;9.75;;;461.20;1638.40;;;;;;5447006;26;20075;-74
2024/04/22 10:25:38;;;;;;;12.75;9.35;;;461.50;1612.80;;;;;;5446038;26;20530;-72
2024/04/22 10:28:04;;;;;;;10.30;8.15;;;461.20;1638.40;;;;;;5447149;26;20006;-73
2024/04/22 10:30:34;;;;;;;18.55;13.27;;;460.90;1638.40;;;;;;5446281;26;20003;-76
2024/04/22 10:33:00;;;;;;;14.13;11.10;;;461.60;1612.80;;;;;;5447151;26;20363;-72
2024/04/22 10:35:28;;;;;;;15.75;12.18;;;461.20;1638.40;;;;;;5446052;26;20007;-73
2024/04/22 10:37:54;;;;;;;52.53;32.20;;;486.70;1587.20;;;;;;5447054;26;19998;-73
2024/04/22 10:40:19;;;;;;;10.32;8.95;;;486.70;1587.20;;;;;;5445397;26;20039;-73
2024/04/22 10:42:46;;;;;;;17.10;13.35;;;486.90;1587.20;;;;;;5445347;26;20465;-74
2024/04/22 10:45:13;;;;;;;15.35;11.85;;;487.30;1587.20;;;;;;5446007;26;20060;-72
2024/04/22 10:47:39;;;;;;;25.48;12.32;;;486.90;1587.20;;;;;;5446560;26;19999;-74
2024/04/22 10:50:13;;;;;;;19.30;11.90;;;487.00;1587.20;;;;;;5445316;26;20035;-74
2024/04/22 10:52:39;;;;;;;15.55;11.00;;;487.20;1587.20;;;;;;5446411;26;20349;-76
2024/04/22 10:55:06;;;;;;;13.68;9.93;;;512.10;1561.60;;;;;;5445356;26;19999;-76
2024/04/22 10:57:33;;;;;;;11.43;10.23;;;487.30;1536.00;;;;;;5446520;26;20003;-76
2024/04/22 11:00:01;;;;;;;16.50;14.13;;;486.40;1587.20;;;;;;5445300;26;19999;-73
2024/04/22 11:02:30;;;;;;;38.15;25.02;;;486.70;1587.20;;;;;;5446469;26;20468;-73
2024/04/22 11:04:57;;;;;;;10.10;6.97;;;486.90;1561.60;;;;;;5445900;26;20010;-73
2024/04/22 11:07:24;;;;;;;9.18;7.88;;;486.50;1561.60;;;;;;5446008;26;20079;-73
2024/04/22 11:09:51;;;;;;;11.98;9.48;;;486.70;1561.60;;;;;;5445650;26;20006;-73
2024/04/22 11:12:18;;;;;;;10.85;9.07;;;461.50;1587.20;;;;;;5446017;26;19999;-73
2024/04/22 11:14:44;;;;;;;13.60;9.32;;;486.50;1587.20;;;;;;5445298;26;19995;-73
2024/04/22 11:17:12;;;;;;;11.57;8.05;;;461.70;1561.60;;;;;;5446742;26;19998;-73
2024/04/22 11:19:38;;;;;;;9.45;8.27;;;461.60;1587.20;;;;;;5445299;26;19995;-73
2024/04/22 11:22:05;;;;;;;9.73;8.73;;;460.80;1638.40;;;;;;5445667;26;20067;-74
2024/04/22 11:24:32;;;;;;;16.77;12.48;;;460.90;1664.00;;;;;;5445569;26;20586;-73
2024/04/22 11:26:58;;;;;;;13.35;7.97;;;461.60;1638.40;;;;;;5445427;26;20003;-73
2024/04/22 11:29:27;;;;;;;8.65;7.38;;;461.50;1638.40;;;;;;5445658;26;20011;-73
2024/04/22 11:31:54;;;;;;;12.07;8.88;;;461.10;1638.40;;;;;;5445592;26;20007;-73
2024/04/22 11:34:21;;;;;;;11.13;8.27;;;461.00;1638.40;;;;;;5446098;26;20023;-72
2024/04/22 11:36:57;;;;;;;13.80;11.98;;;436.10;1664.00;;;;;;5421011;26;20072;-77
2024/04/22 11:39:27;;;;;;;17.80;14.55;;;461.10;1664.00;;;;;;5445972;26;19999;-73
2024/04/22 11:41:52;;;;;;;11.30;8.15;;;461.00;1638.40;;;;;;5441242;26;20487;-71
2024/04/22 11:44:18;;;;;;;8.32;7.45;;;461.10;1638.40;;;;;;5443777;26;19999;-75
2024/04/22 11:46:44;;;;;;;11.80;9.02;;;461.40;1612.80;;;;;;5442854;26;19995;-73
2024/04/22 11:49:10;;;;;;;10.00;7.88;;;461.10;1638.40;;;;;;5444159;26;19999;-76
2024/04/22 11:51:37;;;;;;;9.27;7.63;;;461.30;1612.80;;;;;;5442481;26;19995;-72
2024/04/22 11:54:04;;;;;;;16.55;13.13;;;461.40;1612.80;;;;;;5446923;26;20026;-72
2024/04/22 11:56:35;;;;;;;11.30;8.82;;;486.40;1612.80;;;;;;5447345;26;19999;-73
2024/04/22 11:59:03;;;;;;;9.50;6.40;;;461.20;1612.80;;;;;;5447089;26;20011;-76
2024/04/22 12:01:29;;;;;;;7.75;6.13;;;460.80;1612.80;;;;;;5446486;26;20011;-74
2024/04/22 12:03:55;;;;;;;21.23;16.52;;;461.60;1587.20;;;;;;5446984;26;19995;-72
2024/04/22 12:06:21;;;;;;;8.10;7.30;;;486.60;1561.60;;;;;;5447069;26;19999;-75
2024/04/22 12:08:47;;;;;;;16.67;11.30;;;486.50;1561.60;;;;;;5447846;26;20341;-75
2024/04/22 12:11:14;;;;;;;10.63;8.38;;;487.00;1536.00;;;;;;5446235;26;20018;-75